Time;durP1;ratioP1;P1;durP2;ratioP2;P2;SDS_P1;SDS_P2;PMS_P1;PMS_P2;Temp;Humidity;BMP_temperature;BMP_pressure;BME280_temperature;BME280_humidity;BME280_pressure;Samples;Min_cycle;Max_cycle;Signal;HPM_P1;HPM_P2
2021/12/11 00:00:22;;;;;;;19.38;11.13;;;2.80;91.70;;;;;;5008514;28;20390;-79
2021/12/11 00:03:18;;;;;;;20.35;10.43;;;2.80;91.70;;;;;;5026052;28;20040;-79
2021/12/11 00:05:48;;;;;;;15.82;9.80;;;2.80;91.70;;;;;;5037198;28;20085;-79
2021/12/11 00:08:15;;;;;;;15.77;9.35;;;2.70;91.60;;;;;;5022779;28;20032;-78
2021/12/11 00:10:47;;;;;;;17.80;10.27;;;2.80;91.70;;;;;;5049571;28;20042;-79
2021/12/11 00:13:16;;;;;;;15.68;9.10;;;2.80;91.70;;;;;;5012035;28;20029;-79
2021/12/11 00:15:43;;;;;;;20.17;10.27;;;2.80;91.70;;;;;;5020252;28;20123;-79
2021/12/11 00:18:11;;;;;;;22.33;11.55;;;2.80;91.70;;;;;;5011182;28;20029;-78
2021/12/11 00:20:39;;;;;;;21.15;11.02;;;2.80;91.70;;;;;;5025727;28;20085;-78
2021/12/11 00:23:05;;;;;;;21.52;11.77;;;2.80;91.70;;;;;;5003006;28;20041;-79
2021/12/11 00:25:31;;;;;;;27.45;12.82;;;2.80;91.70;;;;;;5013408;28;20416;-79
2021/12/11 00:28:03;;;;;;;27.75;13.25;;;2.80;91.70;;;;;;5008739;28;20047;-79
2021/12/11 00:30:33;;;;;;;22.40;11.57;;;2.70;91.70;;;;;;5009179;28;20045;-79
2021/12/11 00:33:00;;;;;;;25.08;11.15;;;2.80;91.80;;;;;;5009896;28;20095;-79
2021/12/11 00:35:26;;;;;;;22.35;11.95;;;2.80;91.80;;;;;;5009551;28;20036;-79
2021/12/11 00:37:51;;;;;;;21.05;11.68;;;2.80;91.80;;;;;;5009650;28;20376;-79
2021/12/11 00:40:24;;;;;;;17.10;10.10;;;2.80;91.80;;;;;;5030363;28;20021;-79
2021/12/11 00:42:52;;;;;;;18.77;10.07;;;2.80;91.80;;;;;;5008417;28;20037;-79
2021/12/11 00:45:20;;;;;;;17.00;9.27;;;2.80;91.80;;;;;;4997851;28;20533;-79
2021/12/11 00:47:48;;;;;;;15.82;9.10;;;2.80;91.80;;;;;;5022928;28;20053;-79
2021/12/11 00:50:14;;;;;;;14.45;8.52;;;2.80;91.80;;;;;;5005877;28;20039;-79
2021/12/11 00:52:48;;;;;;;15.90;9.90;;;2.80;91.80;;;;;;5024447;28;20033;-79
2021/12/11 00:55:16;;;;;;;16.00;9.27;;;2.80;91.90;;;;;;5029562;28;20523;-79
2021/12/11 00:57:43;;;;;;;20.13;10.13;;;2.80;91.90;;;;;;5054772;28;20033;-79
2021/12/11 01:00:15;;;;;;;19.67;10.50;;;2.80;91.80;;;;;;5024035;28;20032;-79
2021/12/11 01:02:40;;;;;;;21.33;10.25;;;2.80;91.90;;;;;;5018880;28;20148;-78
2021/12/11 01:05:07;;;;;;;18.65;9.88;;;2.80;91.90;;;;;;5015919;28;20094;-78
2021/12/11 01:07:33;;;;;;;18.73;9.85;;;2.80;91.90;;;;;;5048846;28;20029;-80
2021/12/11 01:10:03;;;;;;;18.30;10.55;;;2.80;91.90;;;;;;5008937;28;20098;-80
2021/12/11 01:12:39;;;;;;;16.77;9.77;;;2.80;91.90;;;;;;4994751;28;20125;-80
2021/12/11 01:15:20;;;;;;;17.23;9.60;;;2.80;91.90;;;;;;5004928;28;20369;-80
2021/12/11 01:18:02;;;;;;;17.88;10.25;;;2.80;91.90;;;;;;5035410;28;20525;-80
2021/12/11 01:20:34;;;;;;;20.70;10.73;;;2.80;91.90;;;;;;5016148;28;20100;-80
2021/12/11 01:23:01;;;;;;;16.10;9.75;;;2.80;91.90;;;;;;5011221;28;20175;-79
2021/12/11 01:25:27;;;;;;;18.13;10.07;;;2.80;91.90;;;;;;5017175;28;20034;-80
2021/12/11 01:27:56;;;;;;;17.15;9.93;;;2.80;91.90;;;;;;5007830;28;20033;-80
2021/12/11 01:30:28;;;;;;;14.20;9.27;;;2.80;91.90;;;;;;5007193;28;20091;-80
2021/12/11 01:32:53;;;;;;;;;;;2.80;91.90;;;;;;5012176;28;20049;-79
2021/12/11 01:35:19;;;;;;;16.55;9.63;;;2.80;91.90;;;;;;5022189;28;20311;-80
2021/12/11 01:37:48;;;;;;;16.02;9.68;;;2.80;91.80;;;;;;5021689;28;20052;-80
2021/12/11 01:40:16;;;;;;;17.85;9.85;;;2.80;91.90;;;;;;5012050;28;20034;-80
2021/12/11 01:42:42;;;;;;;16.02;9.88;;;2.80;91.90;;;;;;4991179;28;20067;-80
2021/12/11 01:45:11;;;;;;;16.17;9.68;;;2.80;92.00;;;;;;5030601;28;20792;-80
2021/12/11 01:47:38;;;;;;;17.60;9.57;;;2.80;92.00;;;;;;4981611;28;20037;-80
2021/12/11 01:50:08;;;;;;;18.40;10.38;;;2.80;92.00;;;;;;5017444;28;20073;-80
2021/12/11 01:52:39;;;;;;;18.08;10.73;;;2.80;92.00;;;;;;5052614;28;20041;-80
2021/12/11 01:55:18;;;;;;;19.00;10.90;;;2.80;92.00;;;;;;5013763;28;20053;-80
2021/12/11 01:57:47;;;;;;;19.48;10.63;;;2.80;92.00;;;;;;5011775;28;20465;-80
2021/12/11 02:00:15;;;;;;;21.80;11.23;;;2.80;92.00;;;;;;5024895;28;20033;-80
2021/12/11 02:02:45;;;;;;;20.45;10.77;;;2.80;92.00;;;;;;5016041;28;20051;-80
2021/12/11 02:05:11;;;;;;;17.75;10.20;;;2.80;92.00;;;;;;5003076;28;20207;-80
2021/12/11 02:07:49;;;;;;;19.13;11.02;;;2.80;92.00;;;;;;5022200;28;20017;-80
2021/12/11 02:10:21;;;;;;;19.85;10.98;;;2.80;92.00;;;;;;5023305;28;20467;-80
2021/12/11 02:12:47;;;;;;;19.67;11.10;;;2.80;92.00;;;;;;5017278;28;20086;-79
2021/12/11 02:15:17;;;;;;;21.67;11.48;;;2.80;92.00;;;;;;5044073;28;20029;-80
2021/12/11 02:17:55;;;;;;;14.13;9.30;;;2.80;92.00;;;;;;5019105;28;20168;-80
2021/12/11 02:20:31;;;;;;;18.63;10.40;;;2.80;92.10;;;;;;4988778;28;20037;-80
2021/12/11 02:22:57;;;;;;;20.48;11.60;;;2.80;92.10;;;;;;5013310;28;20037;-80
2021/12/11 02:25:26;;;;;;;20.10;11.30;;;2.90;92.10;;;;;;5018366;28;20455;-80
2021/12/11 02:27:58;;;;;;;24.40;10.98;;;2.80;92.10;;;;;;5024102;28;20028;-80
2021/12/11 02:30:25;;;;;;;18.52;10.75;;;2.90;92.10;;;;;;5026858;28;20051;-80
2021/12/11 02:32:57;;;;;;;18.98;10.90;;;2.90;92.10;;;;;;5025265;28;20027;-79
2021/12/11 02:35:27;;;;;;;;;;;2.90;92.10;;;;;;5055694;28;20045;-80
2021/12/11 02:38:04;;;;;;;18.80;10.85;;;2.90;92.10;;;;;;5024616;28;19917;-80
2021/12/11 02:40:38;;;;;;;21.17;11.55;;;2.90;92.00;;;;;;5000398;28;22087;-79
2021/12/11 02:43:11;;;;;;;20.65;11.82;;;2.90;92.00;;;;;;5033911;28;20037;-80
2021/12/11 02:45:41;;;;;;;21.23;11.38;;;2.90;92.10;;;;;;5024664;28;20119;-80
2021/12/11 02:48:08;;;;;;;18.33;10.75;;;2.90;92.10;;;;;;5012744;28;20041;-79
2021/12/11 02:50:40;;;;;;;20.08;11.32;;;2.90;92.10;;;;;;5018225;28;20038;-80
2021/12/11 02:53:09;;;;;;;19.58;10.48;;;2.90;92.10;;;;;;4985743;28;20052;-80
2021/12/11 02:55:41;;;;;;;21.92;12.35;;;2.90;92.10;;;;;;5008307;28;20061;-80
2021/12/11 02:58:14;;;;;;;19.75;11.15;;;2.90;92.10;;;;;;4984507;28;20041;-80
2021/12/11 03:00:42;;;;;;;21.63;12.43;;;2.90;92.10;;;;;;4970289;28;20511;-80
2021/12/11 03:03:10;;;;;;;25.33;12.90;;;2.90;92.10;;;;;;5004844;28;20048;-80
2021/12/11 03:05:49;;;;;;;22.30;11.68;;;2.90;92.10;;;;;;4983172;28;21587;-80
2021/12/11 03:08:18;;;;;;;21.98;12.32;;;2.90;92.20;;;;;;4998392;28;20124;-80
2021/12/11 03:10:47;;;;;;;24.77;12.05;;;2.90;92.10;;;;;;4980014;28;20127;-80
2021/12/11 03:13:12;;;;;;;22.35;12.07;;;2.90;92.20;;;;;;5032352;28;20052;-79
2021/12/11 03:15:38;;;;;;;24.00;12.88;;;2.90;92.20;;;;;;4998258;28;20057;-78
2021/12/11 03:18:04;;;;;;;22.67;12.02;;;2.90;92.20;;;;;;4997826;28;20062;-78
2021/12/11 03:20:31;;;;;;;21.33;11.48;;;2.90;92.20;;;;;;5002312;28;20034;-78
2021/12/11 03:22:56;;;;;;;22.08;12.10;;;2.90;92.20;;;;;;5006953;28;20032;-78
2021/12/11 03:25:24;;;;;;;17.55;10.65;;;2.90;92.20;;;;;;4989316;28;20029;-78
2021/12/11 03:27:50;;;;;;;18.23;10.80;;;2.90;92.20;;;;;;5021919;28;20029;-78
2021/12/11 03:30:23;;;;;;;20.23;10.68;;;2.90;92.20;;;;;;4984184;28;20041;-78
2021/12/11 03:32:51;;;;;;;20.73;10.43;;;2.90;92.20;;;;;;5007001;28;20033;-82
2021/12/11 03:35:17;;;;;;;20.10;11.20;;;2.90;92.20;;;;;;4999608;28;20037;-82
2021/12/11 03:37:42;;;;;;;22.83;11.55;;;2.90;92.20;;;;;;5006142;28;20041;-83
2021/12/11 03:40:09;;;;;;;18.92;10.65;;;3.00;92.20;;;;;;5011619;28;20121;-81
2021/12/11 03:42:36;;;;;;;19.90;11.15;;;3.00;92.30;;;;;;5006130;28;20037;-81
2021/12/11 03:45:03;;;;;;;19.33;10.98;;;3.00;92.20;;;;;;5016325;28;20033;-82
2021/12/11 03:47:31;;;;;;;18.65;10.00;;;3.00;92.20;;;;;;5002099;28;20104;-82
2021/12/11 03:49:56;;;;;;;19.30;10.57;;;3.00;92.30;;;;;;4987938;28;20033;-80
2021/12/11 03:52:22;;;;;;;21.75;10.90;;;3.00;92.20;;;;;;5009422;28;20041;-82
2021/12/11 03:54:49;;;;;;;19.23;11.05;;;3.00;92.30;;;;;;5004176;28;20057;-83
2021/12/11 03:57:16;;;;;;;16.92;10.30;;;3.00;92.20;;;;;;5025718;28;20460;-80
2021/12/11 03:59:47;;;;;;;18.38;10.63;;;3.00;92.20;;;;;;5005455;28;20052;-82
2021/12/11 04:02:14;;;;;;;20.73;11.68;;;3.00;92.30;;;;;;4997790;28;21132;-80
2021/12/11 04:04:42;;;;;;;21.33;11.13;;;3.00;92.30;;;;;;4988687;28;20453;-80
2021/12/11 04:07:11;;;;;;;20.10;10.90;;;3.00;92.30;;;;;;5002223;28;20069;-81
2021/12/11 04:09:37;;;;;;;18.30;10.27;;;3.00;92.30;;;;;;5005779;28;20037;-80
2021/12/11 04:12:03;;;;;;;19.40;10.43;;;3.00;92.30;;;;;;5003571;28;20040;-81
2021/12/11 04:14:32;;;;;;;18.75;10.10;;;3.00;92.30;;;;;;5019393;28;20037;-80
2021/12/11 04:16:57;;;;;;;20.50;10.80;;;3.00;92.30;;;;;;5006263;28;20036;-80
2021/12/11 04:19:23;;;;;;;19.23;9.85;;;3.00;92.30;;;;;;4989807;28;20030;-81
2021/12/11 04:21:49;;;;;;;19.67;10.38;;;3.00;92.30;;;;;;4972562;28;20029;-81
2021/12/11 04:24:16;;;;;;;22.70;10.70;;;3.00;92.30;;;;;;4989280;28;20625;-80
2021/12/11 04:26:42;;;;;;;18.98;10.32;;;3.00;92.30;;;;;;4999442;28;20678;-80
2021/12/11 04:29:08;;;;;;;16.80;9.43;;;3.00;92.30;;;;;;4970247;28;20128;-82
2021/12/11 04:31:34;;;;;;;21.05;10.25;;;3.00;92.30;;;;;;4964111;28;20160;-82
2021/12/11 04:34:02;;;;;;;19.20;10.90;;;3.00;92.30;;;;;;4979464;28;20120;-80
2021/12/11 04:36:31;;;;;;;16.25;9.20;;;3.00;92.30;;;;;;4996240;28;20044;-81
2021/12/11 04:38:57;;;;;;;20.45;10.88;;;3.00;92.30;;;;;;4990114;28;20045;-81
2021/12/11 04:41:36;;;;;;;19.05;10.50;;;3.00;92.30;;;;;;4992738;28;20030;-81
2021/12/11 04:44:05;;;;;;;22.38;11.63;;;3.00;92.30;;;;;;4982957;28;20121;-81
2021/12/11 04:46:30;;;;;;;21.40;11.50;;;3.00;92.30;;;;;;4985510;28;20041;-81
2021/12/11 04:49:10;;;;;;;20.70;11.13;;;3.00;92.30;;;;;;4993401;28;20033;-82
2021/12/11 05:02:11;;;;;;;19.30;10.82;;;3.00;92.30;;;;;;5015502;28;20521;-82
2021/12/11 05:07:19;;;;;;;15.80;9.52;;;3.00;92.30;;;;;;5024459;28;20132;-83
2021/12/11 05:09:58;;;;;;;16.58;9.80;;;3.00;92.30;;;;;;5017971;28;20043;-82
2021/12/11 05:14:50;;;;;;;24.92;11.88;;;3.00;92.30;;;;;;5010935;28;20436;-81
2021/12/11 05:17:16;;;;;;;19.75;10.23;;;3.00;92.30;;;;;;5028752;28;20041;-81
2021/12/11 05:19:41;;;;;;;18.17;10.23;;;3.00;92.30;;;;;;4998645;28;20055;-81
2021/12/11 05:22:07;;;;;;;18.30;9.63;;;3.00;92.40;;;;;;5009362;28;20437;-80
2021/12/11 05:24:33;;;;;;;19.98;11.05;;;3.00;92.40;;;;;;5024801;28;20083;-81
2021/12/11 05:26:59;;;;;;;18.08;9.70;;;3.00;92.40;;;;;;5009245;28;20047;-80
2021/12/11 05:29:25;;;;;;;20.42;10.35;;;3.00;92.40;;;;;;5026729;28;20622;-81
2021/12/11 05:31:50;;;;;;;21.13;11.25;;;3.00;92.40;;;;;;5026996;28;20040;-80
2021/12/11 05:34:16;;;;;;;16.92;9.80;;;3.00;92.40;;;;;;5023547;28;20530;-81
2021/12/11 05:36:41;;;;;;;21.40;11.32;;;3.00;92.40;;;;;;5026884;28;20658;-79
2021/12/11 05:39:13;;;;;;;18.50;10.80;;;3.00;92.40;;;;;;5016413;28;20052;-78
2021/12/11 05:41:39;;;;;;;18.15;9.90;;;3.00;92.60;;;;;;5023111;28;20553;-78
2021/12/11 05:44:05;;;;;;;20.15;11.45;;;3.00;92.40;;;;;;5000457;28;20045;-79
2021/12/11 05:46:30;;;;;;;20.63;11.63;;;3.00;92.40;;;;;;5035050;28;20044;-79
2021/12/11 05:48:56;;;;;;;17.52;9.95;;;3.00;92.40;;;;;;5026726;28;20044;-79
2021/12/11 05:51:22;;;;;;;20.42;9.77;;;3.00;92.40;;;;;;5018604;28;20455;-79
2021/12/11 05:53:49;;;;;;;17.23;9.77;;;3.00;92.40;;;;;;5021567;28;20059;-78
2021/12/11 05:56:16;;;;;;;17.20;9.48;;;3.00;92.40;;;;;;5043065;28;20060;-79
2021/12/11 06:01:17;;;;;;;18.95;9.73;;;3.00;92.40;;;;;;5009212;28;20041;-79
2021/12/11 06:03:43;;;;;;;19.08;9.23;;;3.00;92.40;;;;;;5022504;28;20029;-79
2021/12/11 06:06:09;;;;;;;14.73;8.90;;;3.00;92.40;;;;;;5039353;28;20052;-79
2021/12/11 06:08:34;;;;;;;15.95;8.73;;;3.00;92.40;;;;;;5030435;28;20045;-79
2021/12/11 06:11:00;;;;;;;14.65;9.02;;;3.00;92.50;;;;;;5029481;28;20049;-79
2021/12/11 06:13:28;;;;;;;16.83;9.18;;;3.00;92.50;;;;;;5011885;28;20033;-78
2021/12/11 06:15:54;;;;;;;15.30;8.63;;;3.00;92.50;;;;;;5018103;28;20101;-78
2021/12/11 06:18:20;;;;;;;17.95;10.23;;;3.00;92.50;;;;;;5005853;28;20689;-78
2021/12/11 06:20:47;;;;;;;16.17;9.35;;;3.00;92.50;;;;;;5010946;28;20062;-78
2021/12/11 06:23:13;;;;;;;17.73;8.90;;;3.00;92.50;;;;;;4991767;28;20381;-78
2021/12/11 06:25:39;;;;;;;16.00;8.63;;;3.00;92.50;;;;;;5016389;28;20025;-78
2021/12/11 06:28:05;;;;;;;16.55;9.20;;;3.00;92.50;;;;;;5009731;28;20036;-78
2021/12/11 06:30:31;;;;;;;14.13;8.63;;;3.00;92.50;;;;;;5016161;28;20032;-79
2021/12/11 06:32:56;;;;;;;15.30;8.50;;;3.00;92.50;;;;;;5025769;28;20367;-78
2021/12/11 06:35:29;;;;;;;13.70;8.07;;;3.00;92.50;;;;;;5003118;28;20261;-78
2021/12/11 06:37:55;;;;;;;15.88;8.70;;;3.00;92.50;;;;;;5019124;28;20029;-78
2021/12/11 06:40:21;;;;;;;15.57;8.02;;;3.00;92.50;;;;;;5021875;28;20033;-78
2021/12/11 06:42:47;;;;;;;14.30;7.85;;;3.00;92.50;;;;;;5053844;28;20378;-78
2021/12/11 06:45:12;;;;;;;14.77;7.32;;;3.00;92.50;;;;;;5022811;28;20034;-79
2021/12/11 06:47:38;;;;;;;14.15;7.90;;;3.00;92.50;;;;;;5024219;28;20030;-78
2021/12/11 06:50:04;;;;;;;11.48;7.68;;;3.00;92.50;;;;;;5024747;28;20033;-78
2021/12/11 06:52:30;;;;;;;15.65;8.57;;;3.00;92.50;;;;;;5036727;28;20037;-81
2021/12/11 06:54:55;;;;;;;14.90;8.23;;;3.00;92.50;;;;;;5043141;28;20037;-81
2021/12/11 06:57:21;;;;;;;12.88;7.35;;;3.00;92.50;;;;;;5024286;28;20045;-81
2021/12/11 06:59:47;;;;;;;11.65;7.28;;;2.90;92.50;;;;;;5025597;28;20040;-83
2021/12/11 07:02:14;;;;;;;13.93;7.85;;;2.90;92.50;;;;;;5043301;28;20120;-81
2021/12/11 07:04:40;;;;;;;12.90;7.13;;;2.90;92.40;;;;;;5031216;28;20040;-81
2021/12/11 07:07:05;;;;;;;14.65;9.38;;;2.90;92.50;;;;;;5002139;28;20398;-83
2021/12/11 07:09:31;;;;;;;12.93;8.00;;;2.90;92.80;;;;;;5004504;28;20037;-82
2021/12/11 07:11:57;;;;;;;14.98;8.82;;;2.90;92.50;;;;;;5021848;28;20029;-83
2021/12/11 07:14:25;;;;;;;13.95;8.25;;;2.90;92.50;;;;;;5000523;28;20504;-82
2021/12/11 07:16:51;;;;;;;13.73;7.93;;;2.90;92.50;;;;;;5043065;28;20088;-84
2021/12/11 07:19:16;;;;;;;52.50;23.52;;;2.90;92.50;;;;;;5020041;28;20437;-80
2021/12/11 07:21:42;;;;;;;23.15;12.07;;;2.90;92.50;;;;;;5027282;28;20029;-80
2021/12/11 07:24:08;;;;;;;14.40;8.23;;;2.90;92.50;;;;;;5023249;28;20063;-80
2021/12/11 07:26:34;;;;;;;13.38;8.02;;;2.90;92.50;;;;;;5021254;28;20025;-80
2021/12/11 07:29:08;;;;;;;15.43;8.60;;;2.90;92.50;;;;;;5011460;28;20037;-79
2021/12/11 07:31:33;;;;;;;15.68;8.35;;;2.90;92.50;;;;;;5023701;28;20159;-79
2021/12/11 07:33:59;;;;;;;13.82;9.02;;;2.90;92.50;;;;;;5014072;28;20071;-79
2021/12/11 07:36:25;;;;;;;15.82;8.98;;;2.90;92.50;;;;;;5007538;28;20044;-80
2021/12/11 07:38:51;;;;;;;18.73;9.15;;;2.90;92.50;;;;;;5026159;28;20041;-79
2021/12/11 07:41:16;;;;;;;16.80;8.75;;;2.90;92.50;;;;;;4983215;28;20034;-79
2021/12/11 07:43:42;;;;;;;13.65;8.65;;;2.90;92.50;;;;;;5021391;28;20028;-79
2021/12/11 07:46:09;;;;;;;15.23;9.25;;;2.90;92.50;;;;;;5025395;28;20037;-80
2021/12/11 07:48:35;;;;;;;15.38;8.57;;;2.90;92.50;;;;;;5034572;28;20044;-79
2021/12/11 07:51:00;;;;;;;15.50;9.38;;;2.90;92.50;;;;;;5041274;28;20088;-79
2021/12/11 07:53:26;;;;;;;17.80;10.05;;;3.00;92.60;;;;;;5037242;28;20684;-80
2021/12/11 07:55:52;;;;;;;18.63;10.68;;;3.00;92.60;;;;;;5009810;28;20246;-79
2021/12/11 07:58:17;;;;;;;25.55;11.57;;;3.00;92.60;;;;;;5019902;28;20053;-80
2021/12/11 08:00:43;;;;;;;19.50;11.50;;;3.00;92.50;;;;;;5016554;28;20498;-80
2021/12/11 08:03:10;;;;;;;19.85;10.15;;;3.00;92.60;;;;;;5015106;28;20037;-80
2021/12/11 08:05:36;;;;;;;18.55;10.25;;;3.00;92.50;;;;;;5019787;28;20026;-80
2021/12/11 08:08:05;;;;;;;17.05;10.48;;;3.00;92.60;;;;;;5007651;28;20025;-80
2021/12/11 08:10:31;;;;;;;19.65;11.38;;;3.00;92.50;;;;;;5013641;28;20147;-79
2021/12/11 08:12:57;;;;;;;29.60;15.48;;;3.00;92.60;;;;;;5014170;28;20045;-80
2021/12/11 08:15:23;;;;;;;29.90;15.65;;;3.00;92.60;;;;;;5003836;28;20085;-80
2021/12/11 08:17:54;;;;;;;27.20;13.32;;;3.10;92.60;;;;;;5004479;28;20033;-83
2021/12/11 08:20:23;;;;;;;23.08;11.77;;;3.00;92.60;;;;;;5021314;28;20032;-81
2021/12/11 08:22:50;;;;;;;23.73;14.40;;;3.00;92.60;;;;;;5008025;28;20052;-80
2021/12/11 08:25:15;;;;;;;21.42;11.38;;;3.10;92.60;;;;;;5015358;28;20029;-80
2021/12/11 08:27:41;;;;;;;22.50;10.98;;;3.10;92.60;;;;;;5017840;28;20394;-80
2021/12/11 08:30:08;;;;;;;18.70;11.35;;;3.10;92.60;;;;;;5010470;28;20028;-80
2021/12/11 08:32:34;;;;;;;17.17;10.48;;;3.10;92.60;;;;;;5028370;28;20100;-80
2021/12/11 08:34:59;;;;;;;22.25;11.48;;;3.10;92.60;;;;;;5018718;28;20029;-80
2021/12/11 08:37:25;;;;;;;19.88;10.55;;;3.20;92.90;;;;;;5006303;28;20037;-80
2021/12/11 08:39:51;;;;;;;17.33;10.30;;;3.20;92.60;;;;;;5013549;28;20067;-80
2021/12/11 08:42:19;;;;;;;15.10;9.63;;;3.20;92.60;;;;;;5010957;28;20079;-80
2021/12/11 08:44:51;;;;;;;15.15;9.57;;;3.30;92.60;;;;;;5010954;28;20569;-80
2021/12/11 08:47:17;;;;;;;16.17;9.93;;;3.30;92.60;;;;;;5031559;28;20060;-79
2021/12/11 08:49:43;;;;;;;17.85;10.25;;;3.30;92.50;;;;;;5019941;28;21211;-80
2021/12/11 08:52:30;;;;;;;18.00;9.20;;;3.30;92.50;;;;;;4993256;28;20084;-80
2021/12/11 08:54:57;;;;;;;16.80;10.57;;;3.40;92.60;;;;;;4990865;28;20077;-79
2021/12/11 08:57:25;;;;;;;17.23;9.82;;;3.40;92.50;;;;;;4991601;28;20050;-79
2021/12/11 08:59:53;;;;;;;17.00;9.77;;;3.40;92.50;;;;;;4995875;28;20140;-80
2021/12/11 09:02:25;;;;;;;15.75;9.75;;;3.40;92.50;;;;;;5000840;28;20041;-80
2021/12/11 09:04:56;;;;;;;16.40;8.80;;;3.40;92.50;;;;;;4989017;28;20037;-80
2021/12/11 09:07:25;;;;;;;24.58;12.05;;;3.40;92.50;;;;;;4986337;28;20049;-79
2021/12/11 09:10:25;;;;;;;33.20;16.15;;;3.50;92.50;;;;;;5034482;28;20040;-79
2021/12/11 09:12:58;;;;;;;23.85;13.90;;;3.50;92.50;;;;;;4987145;28;20025;-79
2021/12/11 09:15:33;;;;;;;19.33;11.00;;;3.50;92.50;;;;;;4962418;28;20111;-79
2021/12/11 09:18:02;;;;;;;13.90;9.43;;;3.60;92.50;;;;;;4997628;28;20045;-79
2021/12/11 09:20:37;;;;;;;14.98;8.32;;;3.60;92.40;;;;;;4998231;28;20232;-79
2021/12/11 09:23:16;;;;;;;15.63;7.90;;;3.60;92.50;;;;;;4995790;28;20033;-79
2021/12/11 09:25:53;;;;;;;14.70;8.00;;;3.60;92.40;;;;;;4990848;28;20047;-79
2021/12/11 09:28:44;;;;;;;14.10;8.73;;;3.70;92.40;;;;;;4998710;28;20038;-79
2021/12/11 09:31:14;;;;;;;16.08;8.73;;;3.70;92.40;;;;;;4991553;28;20060;-79
2021/12/11 09:33:53;;;;;;;15.93;8.80;;;3.70;92.40;;;;;;5001082;28;20038;-79
2021/12/11 09:36:39;;;;;;;14.55;8.70;;;3.70;92.40;;;;;;4986750;28;20530;-79
2021/12/11 09:39:21;;;;;;;13.40;9.05;;;3.70;92.40;;;;;;5013515;28;20042;-79
2021/12/11 09:41:46;;;;;;;13.48;8.40;;;3.80;92.40;;;;;;5003250;28;20488;-79
2021/12/11 09:44:23;;;;;;;14.02;7.20;;;3.80;92.40;;;;;;5006209;28;20037;-79
2021/12/11 09:46:55;;;;;;;17.80;8.02;;;3.80;92.30;;;;;;5040811;28;20037;-80
2021/12/11 09:49:25;;;;;;;16.17;8.68;;;3.90;92.40;;;;;;4989827;28;20172;-79
2021/12/11 09:51:59;;;;;;;19.58;9.90;;;3.90;92.40;;;;;;5001267;28;20103;-79
2021/12/11 09:54:25;;;;;;;14.48;8.50;;;3.90;92.30;;;;;;5004510;28;20041;-79
2021/12/11 09:56:54;;;;;;;12.77;8.15;;;3.90;92.30;;;;;;5011357;28;20568;-79
2021/12/11 09:59:21;;;;;;;14.32;7.90;;;4.00;92.30;;;;;;5002746;28;20044;-79
2021/12/11 10:01:50;;;;;;;16.23;8.05;;;4.00;92.20;;;;;;4996157;28;20037;-79
2021/12/11 10:04:19;;;;;;;14.70;8.57;;;4.00;92.20;;;;;;5015642;28;20029;-80
2021/12/11 10:07:13;;;;;;;20.45;10.05;;;4.00;92.20;;;;;;5010818;28;20034;-80
2021/12/11 10:09:46;;;;;;;13.32;8.15;;;4.10;92.20;;;;;;5008106;28;20083;-80
2021/12/11 10:12:16;;;;;;;13.63;9.18;;;4.10;92.10;;;;;;4961247;28;20037;-80
2021/12/11 10:14:49;;;;;;;19.63;10.38;;;4.20;92.10;;;;;;5001929;28;20034;-78
2021/12/11 10:17:20;;;;;;;16.45;9.05;;;4.20;92.10;;;;;;5018248;28;20676;-79
2021/12/11 10:19:46;;;;;;;18.55;9.75;;;4.20;92.10;;;;;;4990743;28;20503;-79
2021/12/11 10:22:28;;;;;;;17.17;9.27;;;4.20;92.00;;;;;;5028819;28;20084;-79
2021/12/11 10:24:54;;;;;;;22.50;11.32;;;4.30;92.00;;;;;;5024013;28;20033;-79
2021/12/11 10:27:22;;;;;;;14.60;8.38;;;4.40;92.10;;;;;;5004449;28;20037;-79
2021/12/11 10:29:48;;;;;;;13.15;8.07;;;4.40;92.10;;;;;;5005242;28;20029;-79
2021/12/11 10:32:23;;;;;;;13.18;7.97;;;4.50;92.00;;;;;;5006259;28;20044;-79
2021/12/11 10:34:50;;;;;;;14.52;8.25;;;4.60;92.00;;;;;;5025862;28;20098;-79
2021/12/11 10:37:19;;;;;;;16.75;9.85;;;4.70;92.10;;;;;;4996809;28;20091;-79
2021/12/11 10:39:47;;;;;;;16.75;10.02;;;4.90;92.10;;;;;;5009464;28;20578;-79
2021/12/11 10:42:13;;;;;;;17.83;8.52;;;5.00;92.00;;;;;;5000467;28;20044;-79
2021/12/11 10:44:43;;;;;;;14.40;8.43;;;5.10;91.90;;;;;;5025701;28;20037;-79
2021/12/11 10:47:31;;;;;;;15.48;8.80;;;5.10;91.70;;;;;;4982614;28;20036;-79
2021/12/11 10:49:56;;;;;;;20.30;10.15;;;5.10;91.60;;;;;;5007142;28;20049;-79
2021/12/11 10:52:26;;;;;;;13.15;9.10;;;5.10;91.50;;;;;;5016230;28;20025;-79
2021/12/11 10:54:53;;;;;;;18.23;10.45;;;5.10;91.50;;;;;;5026210;28;20036;-79
2021/12/11 10:57:19;;;;;;;16.17;8.98;;;5.00;91.40;;;;;;5015915;28;20037;-79
2021/12/11 10:59:45;;;;;;;13.82;8.30;;;5.00;91.40;;;;;;4996495;28;20032;-79
2021/12/11 11:02:35;;;;;;;23.05;11.77;;;5.00;91.40;;;;;;5003351;28;20450;-79
2021/12/11 11:05:08;;;;;;;19.33;11.48;;;5.00;91.40;;;;;;5030813;28;20052;-79
2021/12/11 11:07:34;;;;;;;20.48;12.25;;;5.00;91.40;;;;;;5034983;28;20043;-79
2021/12/11 11:10:01;;;;;;;20.08;11.20;;;5.00;91.40;;;;;;5028910;28;20514;-78
2021/12/11 11:12:28;;;;;;;21.42;10.65;;;5.00;91.40;;;;;;5036119;28;20121;-77
2021/12/11 11:14:54;;;;;;;21.75;11.38;;;5.00;91.40;;;;;;4997901;28;20033;-79
2021/12/11 11:17:22;;;;;;;20.30;11.32;;;5.00;91.40;;;;;;5016842;28;20410;-79
2021/12/11 11:19:48;;;;;;;19.20;11.30;;;5.00;91.40;;;;;;5014581;28;22634;-78
2021/12/11 11:22:20;;;;;;;17.77;9.80;;;5.00;91.30;;;;;;5034421;28;20044;-78
2021/12/11 11:24:48;;;;;;;15.20;9.85;;;5.00;91.30;;;;;;5013893;28;20425;-78
2021/12/11 11:27:14;;;;;;;15.52;10.18;;;5.00;91.30;;;;;;5006201;28;20534;-79
2021/12/11 11:29:41;;;;;;;20.38;11.18;;;5.00;91.20;;;;;;5035839;28;20037;-78
2021/12/11 11:32:09;;;;;;;19.13;10.07;;;5.00;91.20;;;;;;5007080;28;20049;-78
2021/12/11 11:34:40;;;;;;;18.83;11.02;;;5.00;91.20;;;;;;5012082;28;20033;-78
2021/12/11 11:37:06;;;;;;;17.08;10.38;;;5.00;91.20;;;;;;5023708;28;20042;-78
2021/12/11 11:39:31;;;;;;;18.95;11.40;;;5.00;91.20;;;;;;5002006;28;20127;-78
2021/12/11 11:42:00;;;;;;;18.35;10.73;;;5.00;91.20;;;;;;5020105;28;20155;-77
2021/12/11 11:44:27;;;;;;;19.98;11.52;;;5.00;91.10;;;;;;5011069;28;20025;-78
2021/12/11 11:46:54;;;;;;;22.15;11.13;;;5.00;91.10;;;;;;5027420;28;20037;-78
2021/12/11 11:49:19;;;;;;;20.63;10.48;;;5.00;91.10;;;;;;4991129;28;20041;-79
2021/12/11 11:51:51;;;;;;;21.23;12.18;;;5.00;91.00;;;;;;5007645;28;20528;-79
2021/12/11 11:54:18;;;;;;;21.25;12.45;;;5.00;91.00;;;;;;5025670;28;20028;-78
2021/12/11 11:56:48;;;;;;;25.95;14.15;;;5.10;91.40;;;;;;5003179;28;20049;-78
2021/12/11 11:59:14;;;;;;;19.10;10.60;;;5.10;91.00;;;;;;5025766;28;20133;-79
2021/12/11 12:01:43;;;;;;;19.63;10.68;;;5.10;91.00;;;;;;5011797;28;20088;-78
2021/12/11 12:04:15;;;;;;;21.92;11.80;;;5.10;90.90;;;;;;5010959;28;20438;-79
2021/12/11 12:06:41;;;;;;;20.33;11.00;;;5.10;90.90;;;;;;5021878;28;20036;-79
2021/12/11 12:09:08;;;;;;;19.08;11.13;;;5.10;90.80;;;;;;5035345;28;20045;-79
2021/12/11 12:11:34;;;;;;;17.98;11.07;;;5.10;90.80;;;;;;5015741;28;20597;-78
2021/12/11 12:14:02;;;;;;;24.23;12.15;;;5.10;90.80;;;;;;5017544;28;20036;-79
2021/12/11 12:16:31;;;;;;;23.98;13.25;;;5.10;90.70;;;;;;4997457;28;20037;-79
2021/12/11 12:18:57;;;;;;;21.70;12.27;;;5.10;90.70;;;;;;4996365;28;20534;-79
2021/12/11 12:21:23;;;;;;;21.55;11.00;;;5.10;90.70;;;;;;5004473;28;20044;-79
2021/12/11 12:23:48;;;;;;;33.08;11.98;;;5.10;90.70;;;;;;5033793;28;20430;-79
2021/12/11 12:26:19;;;;;;;19.77;11.45;;;5.10;90.70;;;;;;5025331;28;20521;-79
2021/12/11 12:28:45;;;;;;;20.75;10.88;;;5.10;90.60;;;;;;5037869;28;20110;-79
2021/12/11 12:31:17;;;;;;;26.27;10.90;;;5.10;90.50;;;;;;5021283;28;20566;-79
2021/12/11 12:33:43;;;;;;;20.10;9.90;;;5.10;90.50;;;;;;5020695;28;20039;-79
2021/12/11 12:36:09;;;;;;;14.73;8.95;;;5.10;90.50;;;;;;5022137;28;20048;-78
2021/12/11 12:38:37;;;;;;;15.93;9.65;;;5.10;90.50;;;;;;5006126;28;20534;-78
2021/12/11 12:41:11;;;;;;;15.30;9.10;;;5.00;90.40;;;;;;5014064;28;20041;-78
2021/12/11 12:46:15;;;;;;;21.48;9.63;;;5.00;90.40;;;;;;5014488;28;20689;-78
2021/12/11 12:48:41;;;;;;;22.00;10.98;;;5.10;90.50;;;;;;5033936;28;20033;-78
2021/12/11 12:51:08;;;;;;;19.38;9.80;;;5.10;90.40;;;;;;5008646;28;20504;-79
2021/12/11 12:53:35;;;;;;;19.55;9.90;;;5.10;90.30;;;;;;5019771;28;20053;-78
2021/12/11 12:56:05;;;;;;;17.23;10.10;;;5.10;90.30;;;;;;5017469;28;20045;-78
2021/12/11 12:58:37;;;;;;;18.20;10.15;;;5.10;90.30;;;;;;5042953;28;20044;-78
2021/12/11 13:01:07;;;;;;;17.90;10.10;;;5.10;90.30;;;;;;5025650;28;20368;-78
2021/12/11 13:03:34;;;;;;;23.00;12.75;;;5.10;90.30;;;;;;5021767;28;20051;-78
2021/12/11 13:06:11;;;;;;;25.80;13.15;;;5.10;90.30;;;;;;5016533;28;20755;-79
2021/12/11 13:08:46;;;;;;;20.13;11.43;;;5.10;90.20;;;;;;5027654;28;20441;-78